Sunflower Gold — JD2460 — position and weather

sailwx.info

Track history (hours):
 
Tides and Currents Weather Stations Pressure Air Temp Water Temp Dewpoint Dewpoint Depression Visibility Wind Speed Wind Dir Waves Ship Positions

Sunflower Gold

Last reported at 2015-Feb-26 11:26 UTC. Time now 2015-Feb-27 00:35 UTC.
Position N 34°35' E 134°51'.

Length 166 m; draft 5.8 m.

Type: Passenger vessel. MMSI: 431000331.

Date/timePositionNaut miles runAvg speedWind from/ knotsBaromVisibWave heightAir tempDewpointWater temp
2015-Feb-26 11:26N 34°35' E 134°51'1718.8
2015-Feb-26 10:33N 34°37' E 135°11'7 6.9
2015-Feb-26 09:31N 34°42' E 135°17'0 0.0
2015-Feb-26 08:31N 34°42' E 135°17'0 0.0
2015-Feb-26 07:31N 34°42' E 135°17'0 0.0
2015-Feb-26 06:25N 34°42' E 135°17'0 0.0
2015-Feb-26 05:25N 34°42' E 135°17'0 0.0
2015-Feb-26 04:31N 34°42' E 135°17'0 0.0
2015-Feb-26 03:31N 34°42' E 135°17'0 0.0
2015-Feb-26 02:31N 34°42' E 135°17'0 0.0
2015-Feb-26 01:22N 34°42' E 135°17'0 0.0
2015-Feb-26 00:28N 34°42' E 135°17'0 0.0
2015-Feb-25 23:28N 34°42' E 135°17'0 0.0
2015-Feb-25 22:22N 34°42' E 135°17'0 0.0
2015-Feb-25 21:33N 34°42' E 135°17'1212.5
2015-Feb-25 20:33N 34°35' E 135°04'9 0.3
2015-Feb-24 11:21N 34°35' E 134°53'1518.7
2015-Feb-24 10:33N 34°37' E 135°11'7 6.8
2015-Feb-24 09:32N 34°42' E 135°17'0 0.0
2015-Feb-24 08:32N 34°42' E 135°17'0 0.0
2015-Feb-24 07:32N 34°42' E 135°17'0 0.0
2015-Feb-24 06:32N 34°42' E 135°17'0 0.0
2015-Feb-24 05:32N 34°42' E 135°17'0 0.0
2015-Feb-24 04:32N 34°42' E 135°17'0 0.0
2015-Feb-24 03:26N 34°42' E 135°17'0 0.0
2015-Feb-24 02:20N 34°42' E 135°17'0 0.0
2015-Feb-24 01:32N 34°42' E 135°17'0 0.0
2015-Feb-24 00:32N 34°42' E 135°17'0 0.0
2015-Feb-23 23:26N 34°42' E 135°17'0 0.0
2015-Feb-23 22:32N 34°42' E 135°17'0 0.0
2015-Feb-23 21:33N 34°42' E 135°17'1211.9
2015-Feb-23 20:33N 34°35' E 135°06'14 0.4
2015-Feb-22 11:32N 34°34' E 134°48'1919.4
2015-Feb-22 10:33N 34°36' E 135°11'7 7.0
2015-Feb-22 09:33N 34°42' E 135°17'0 0.0
2015-Feb-22 08:30N 34°42' E 135°17'0 0.0
2015-Feb-22 07:30N 34°42' E 135°17'0 0.0
2015-Feb-22 06:30N 34°42' E 135°17'0 0.0
2015-Feb-22 05:30N 34°42' E 135°17'0 0.0
2015-Feb-22 04:30N 34°42' E 135°17'0 0.0
2015-Feb-22 03:30N 34°42' E 135°17'0 0.0
2015-Feb-22 02:30N 34°42' E 135°17'0 0.0
2015-Feb-22 01:30N 34°42' E 135°17'0 0.0
2015-Feb-22 00:24N 34°42' E 135°17'0 0.0
2015-Feb-21 23:30N 34°42' E 135°17'3 2.8
2015-Feb-21 22:33N 34°39' E 135°18'1616.1
2015-Feb-21 21:33N 34°37' E 134°59'6 0.2
2015-Feb-20 12:12N 34°35' E 134°52'1319.7
2015-Feb-20 11:33N 34°36' E 135°07'10 9.9
2015-Feb-20 10:33N 34°42' E 135°17'0 0.0
2015-Feb-20 09:33N 34°42' E 135°17'0 0.0
2015-Feb-20 08:27N 34°42' E 135°17'0 0.0
2015-Feb-20 07:33N 34°42' E 135°17'0 0.0
2015-Feb-20 06:33N 34°42' E 135°17'0 0.0
2015-Feb-20 05:21N 34°42' E 135°17'0 0.0
2015-Feb-20 04:33N 34°42' E 135°17'0 0.0
2015-Feb-20 03:27N 34°42' E 135°17'0 0.0
2015-Feb-20 02:33N 34°42' E 135°17'0 0.0
2015-Feb-20 01:21N 34°42' E 135°17'0 0.0
2015-Feb-20 00:15N 34°42' E 135°17'0 0.0
2015-Feb-19 23:33N 34°42' E 135°17'0 0.0
2015-Feb-19 22:33N 34°42' E 135°17'0 0.0
2015-Feb-19 21:33N 34°42' E 135°17'1312.7
2015-Feb-19 20:33N 34°35' E 135°04'8 0.2
2015-Feb-18 11:11N 34°36' E 134°55'1320.8
2015-Feb-18 10:34N 34°36' E 135°10'8 7.4
2015-Feb-18 09:30N 34°42' E 135°17'0 0.0
2015-Feb-18 08:30N 34°42' E 135°17'0 0.0
2015-Feb-18 07:12N 34°42' E 135°17'0 0.0
2015-Feb-18 06:24N 34°42' E 135°17'0 0.0
2015-Feb-18 05:24N 34°42' E 135°17'0 0.0
2015-Feb-18 04:30N 34°42' E 135°17'0 0.0
2015-Feb-18 03:24N 34°42' E 135°17'0 0.0
2015-Feb-18 02:24N 34°42' E 135°17'0 0.0
2015-Feb-18 01:30N 34°42' E 135°17'0 0.0
2015-Feb-18 00:30N 34°42' E 135°17'0 0.0
2015-Feb-17 23:30N 34°42' E 135°17'0 0.0
2015-Feb-17 22:30N 34°42' E 135°17'0 0.0
2015-Feb-17 21:33N 34°42' E 135°17'1212.4
2015-Feb-17 20:33N 34°35' E 135°04'  
Track history (hours):
 
Tides and Currents Weather Stations Pressure Air Temp Water Temp Dewpoint Dewpoint Depression Visibility Wind Speed Wind Dir Waves Ship Positions

Sunflower Gold

Last reported at 2015-Feb-26 11:26 UTC. Time now 2015-Feb-27 00:35 UTC.
Position N 34°35' E 134°51'.

Length 166 m; draft 5.8 m.

Type: Passenger vessel. MMSI: 431000331.

Date/timePositionNaut miles runAvg speedWind from/ knotsBaromVisibWave heightAir tempDewpointWater temp
2015-Feb-26 11:26N 34°35' E 134°51'1718.8
2015-Feb-26 10:33N 34°37' E 135°11'7 6.9
2015-Feb-26 09:31N 34°42' E 135°17'0 0.0
2015-Feb-26 08:31N 34°42' E 135°17'0 0.0
2015-Feb-26 07:31N 34°42' E 135°17'0 0.0
2015-Feb-26 06:25N 34°42' E 135°17'0 0.0
2015-Feb-26 05:25N 34°42' E 135°17'0 0.0
2015-Feb-26 04:31N 34°42' E 135°17'0 0.0
2015-Feb-26 03:31N 34°42' E 135°17'0 0.0
2015-Feb-26 02:31N 34°42' E 135°17'0 0.0
2015-Feb-26 01:22N 34°42' E 135°17'0 0.0
2015-Feb-26 00:28N 34°42' E 135°17'0 0.0
2015-Feb-25 23:28N 34°42' E 135°17'0 0.0
2015-Feb-25 22:22N 34°42' E 135°17'0 0.0
2015-Feb-25 21:33N 34°42' E 135°17'1212.5
2015-Feb-25 20:33N 34°35' E 135°04'9 0.3
2015-Feb-24 11:21N 34°35' E 134°53'1518.7
2015-Feb-24 10:33N 34°37' E 135°11'7 6.8
2015-Feb-24 09:32N 34°42' E 135°17'0 0.0
2015-Feb-24 08:32N 34°42' E 135°17'0 0.0
2015-Feb-24 07:32N 34°42' E 135°17'0 0.0
2015-Feb-24 06:32N 34°42' E 135°17'0 0.0
2015-Feb-24 05:32N 34°42' E 135°17'0 0.0
2015-Feb-24 04:32N 34°42' E 135°17'0 0.0
2015-Feb-24 03:26N 34°42' E 135°17'0 0.0
2015-Feb-24 02:20N 34°42' E 135°17'0 0.0
2015-Feb-24 01:32N 34°42' E 135°17'0 0.0
2015-Feb-24 00:32N 34°42' E 135°17'0 0.0
2015-Feb-23 23:26N 34°42' E 135°17'0 0.0
2015-Feb-23 22:32N 34°42' E 135°17'0 0.0
2015-Feb-23 21:33N 34°42' E 135°17'1211.9
2015-Feb-23 20:33N 34°35' E 135°06'14 0.4
2015-Feb-22 11:32N 34°34' E 134°48'1919.4
2015-Feb-22 10:33N 34°36' E 135°11'7 7.0
2015-Feb-22 09:33N 34°42' E 135°17'0 0.0
2015-Feb-22 08:30N 34°42' E 135°17'0 0.0
2015-Feb-22 07:30N 34°42' E 135°17'0 0.0
2015-Feb-22 06:30N 34°42' E 135°17'0 0.0
2015-Feb-22 05:30N 34°42' E 135°17'0 0.0
2015-Feb-22 04:30N 34°42' E 135°17'0 0.0
2015-Feb-22 03:30N 34°42' E 135°17'0 0.0
2015-Feb-22 02:30N 34°42' E 135°17'0 0.0
2015-Feb-22 01:30N 34°42' E 135°17'0 0.0
2015-Feb-22 00:24N 34°42' E 135°17'0 0.0
2015-Feb-21 23:30N 34°42' E 135°17'3 2.8
2015-Feb-21 22:33N 34°39' E 135°18'1616.1
2015-Feb-21 21:33N 34°37' E 134°59'6 0.2
2015-Feb-20 12:12N 34°35' E 134°52'1319.7
2015-Feb-20 11:33N 34°36' E 135°07'10 9.9
2015-Feb-20 10:33N 34°42' E 135°17'0 0.0
2015-Feb-20 09:33N 34°42' E 135°17'0 0.0
2015-Feb-20 08:27N 34°42' E 135°17'0 0.0
2015-Feb-20 07:33N 34°42' E 135°17'0 0.0
2015-Feb-20 06:33N 34°42' E 135°17'0 0.0
2015-Feb-20 05:21N 34°42' E 135°17'0 0.0
2015-Feb-20 04:33N 34°42' E 135°17'0 0.0
2015-Feb-20 03:27N 34°42' E 135°17'0 0.0
2015-Feb-20 02:33N 34°42' E 135°17'0 0.0
2015-Feb-20 01:21N 34°42' E 135°17'0 0.0
2015-Feb-20 00:15N 34°42' E 135°17'0 0.0
2015-Feb-19 23:33N 34°42' E 135°17'0 0.0
2015-Feb-19 22:33N 34°42' E 135°17'0 0.0
2015-Feb-19 21:33N 34°42' E 135°17'1312.7
2015-Feb-19 20:33N 34°35' E 135°04'8 0.2
2015-Feb-18 11:11N 34°36' E 134°55'1320.8
2015-Feb-18 10:34N 34°36' E 135°10'8 7.4
2015-Feb-18 09:30N 34°42' E 135°17'0 0.0
2015-Feb-18 08:30N 34°42' E 135°17'0 0.0
2015-Feb-18 07:12N 34°42' E 135°17'0 0.0
2015-Feb-18 06:24N 34°42' E 135°17'0 0.0
2015-Feb-18 05:24N 34°42' E 135°17'0 0.0
2015-Feb-18 04:30N 34°42' E 135°17'0 0.0
2015-Feb-18 03:24N 34°42' E 135°17'0 0.0
2015-Feb-18 02:24N 34°42' E 135°17'0 0.0
2015-Feb-18 01:30N 34°42' E 135°17'0 0.0
2015-Feb-18 00:30N 34°42' E 135°17'0 0.0
2015-Feb-17 23:30N 34°42' E 135°17'0 0.0
2015-Feb-17 22:30N 34°42' E 135°17'0 0.0
2015-Feb-17 21:33N 34°42' E 135°17'1212.4
2015-Feb-17 20:33N 34°35' E 135°04'  

Dump ship's entire track history